Time;durP1;ratioP1;P1;durP2;ratioP2;P2;SDS_P1;SDS_P2;PMS_P1;PMS_P2;Temp;Humidity;BMP_temperature;BMP_pressure;BME280_temperature;BME280_humidity;BME280_pressure;Samples;Min_cycle;Max_cycle;Signal;HPM_P1;HPM_P2
2023/03/02 00:01:08;;;;;;;0.30;0.30;;;2.20;99.90;;;;;;5031268;28;20478;-79
2023/03/02 00:03:36;;;;;;;0.40;0.40;;;2.30;99.90;;;;;;5024082;28;20537;-79
2023/03/02 00:06:02;;;;;;;0.40;0.40;;;2.20;99.90;;;;;;5011107;28;20485;-80
2023/03/02 00:08:27;;;;;;;0.40;0.40;;;2.20;99.90;;;;;;5022745;28;20481;-79
2023/03/02 00:10:55;;;;;;;0.40;0.40;;;2.20;99.90;;;;;;5022707;28;20525;-80
2023/03/02 00:13:21;;;;;;;0.40;0.40;;;2.00;99.90;;;;;;5028201;28;20785;-79
2023/03/02 00:15:47;;;;;;;0.40;0.40;;;2.00;99.90;;;;;;5010980;28;20496;-80
2023/03/02 00:18:12;;;;;;;0.40;0.40;;;2.10;99.90;;;;;;5002939;28;20898;-80
2023/03/02 00:20:38;;;;;;;0.40;0.40;;;2.10;99.90;;;;;;5022810;28;20530;-79
2023/03/02 00:23:03;;;;;;;0.40;0.40;;;2.20;99.90;;;;;;5015608;28;20182;-79
2023/03/02 00:25:29;;;;;;;0.50;0.50;;;2.10;99.90;;;;;;5013443;28;20187;-80
2023/03/02 00:27:55;;;;;;;0.30;0.30;;;2.10;99.90;;;;;;5037378;28;20183;-79
2023/03/02 00:30:20;;;;;;;0.40;0.40;;;2.00;99.90;;;;;;5026963;28;20180;-80
2023/03/02 00:32:46;;;;;;;0.40;0.40;;;1.90;99.90;;;;;;5011076;28;20687;-80
2023/03/02 00:35:11;;;;;;;0.40;0.40;;;2.00;99.90;;;;;;5030379;28;20187;-80
2023/03/02 00:37:37;;;;;;;0.40;0.40;;;2.10;99.90;;;;;;5028819;28;20254;-79
2023/03/02 00:40:05;;;;;;;0.40;0.40;;;1.90;99.90;;;;;;5038463;28;20699;-79
2023/03/02 00:42:31;;;;;;;0.40;0.40;;;2.00;99.90;;;;;;5011617;28;20578;-79
2023/03/02 00:45:00;;;;;;;0.30;0.30;;;1.90;99.90;;;;;;5031819;28;20442;-79
2023/03/02 00:47:27;;;;;;;0.40;0.40;;;1.90;99.90;;;;;;5027446;28;20538;-80
2023/03/02 00:49:53;;;;;;;0.50;0.50;;;1.90;99.90;;;;;;5038278;28;20441;-79
2023/03/02 00:52:18;;;;;;;0.30;0.30;;;1.90;99.90;;;;;;5031221;28;20813;-79
2023/03/02 00:54:44;;;;;;;0.40;0.40;;;1.90;99.90;;;;;;5025947;28;20282;-79
2023/03/02 00:57:09;;;;;;;0.40;0.40;;;1.80;99.90;;;;;;5034006;28;20265;-79
2023/03/02 00:59:37;;;;;;;0.40;0.40;;;1.90;99.90;;;;;;5032061;28;20506;-80
2023/03/02 01:02:03;;;;;;;0.40;0.40;;;1.80;99.90;;;;;;5030713;28;20225;-80
2023/03/02 01:04:34;;;;;;;0.40;0.40;;;1.80;99.90;;;;;;5038616;28;20453;-79
2023/03/02 01:07:06;;;;;;;0.40;0.40;;;1.80;99.90;;;;;;5041283;28;20446;-79
2023/03/02 01:09:32;;;;;;;0.40;0.40;;;1.70;99.90;;;;;;5032288;28;20450;-79
2023/03/02 01:11:58;;;;;;;0.43;0.43;;;1.90;99.90;;;;;;5028041;28;20449;-79
2023/03/02 01:14:24;;;;;;;0.50;0.50;;;1.80;99.90;;;;;;4999186;28;20460;-79
2023/03/02 01:16:49;;;;;;;0.43;0.43;;;1.80;99.90;;;;;;5027268;28;20208;-79
2023/03/02 01:19:16;;;;;;;0.40;0.40;;;1.80;99.90;;;;;;5031392;28;20270;-79
2023/03/02 01:21:42;;;;;;;0.40;0.40;;;1.70;99.90;;;;;;5029900;28;20183;-80
2023/03/02 01:24:09;;;;;;;0.30;0.30;;;1.60;99.90;;;;;;5029170;28;20472;-79
2023/03/02 01:26:34;;;;;;;0.20;0.20;;;1.70;99.90;;;;;;5030023;28;20988;-80
2023/03/02 01:29:00;;;;;;;0.40;0.40;;;1.80;99.90;;;;;;5011275;28;20455;-79
2023/03/02 01:31:27;;;;;;;0.30;0.30;;;1.70;99.90;;;;;;5042286;28;20193;-79
2023/03/02 01:33:53;;;;;;;0.40;0.40;;;1.70;99.90;;;;;;5034208;28;20192;-79
2023/03/02 01:36:19;;;;;;;0.50;0.50;;;1.70;99.90;;;;;;5010936;28;20445;-79
2023/03/02 01:38:45;;;;;;;0.40;0.40;;;1.70;99.90;;;;;;5029249;28;20541;-80
2023/03/02 01:41:11;;;;;;;0.40;0.40;;;1.80;99.90;;;;;;5030527;28;20569;-79
2023/03/02 01:43:38;;;;;;;0.50;0.50;;;1.80;99.90;;;;;;5023281;28;20298;-80
2023/03/02 01:46:20;;;;;;;0.40;0.40;;;1.80;99.90;;;;;;5009312;28;20442;-79
2023/03/02 01:48:51;;;;;;;0.40;0.40;;;1.80;99.90;;;;;;5034167;28;20813;-80
2023/03/02 01:51:19;;;;;;;0.50;0.50;;;1.70;99.90;;;;;;5033685;28;20442;-79
2023/03/02 01:53:47;;;;;;;0.40;0.40;;;1.70;99.90;;;;;;5013488;28;20477;-80
2023/03/02 01:56:16;;;;;;;0.43;0.43;;;1.80;99.90;;;;;;5044643;28;20930;-79
2023/03/02 01:58:42;;;;;;;0.40;0.40;;;1.80;99.90;;;;;;5009702;28;20970;-79
2023/03/02 02:01:14;;;;;;;0.30;0.30;;;1.80;99.90;;;;;;5008668;28;20833;-79
2023/03/02 02:03:41;;;;;;;0.40;0.40;;;1.60;99.90;;;;;;5022053;28;20473;-79
2023/03/02 02:06:20;;;;;;;0.40;0.40;;;1.70;99.90;;;;;;5010883;28;20532;-79
2023/03/02 02:08:47;;;;;;;0.40;0.40;;;1.70;99.90;;;;;;5031957;28;20450;-80
2023/03/02 02:11:13;;;;;;;0.30;0.30;;;1.80;99.90;;;;;;5026627;28;20862;-79
2023/03/02 02:13:39;;;;;;;0.40;0.40;;;1.60;99.90;;;;;;5017041;28;20458;-79
2023/03/02 02:16:05;;;;;;;0.40;0.40;;;1.70;99.90;;;;;;5030828;28;20437;-79
2023/03/02 02:18:32;;;;;;;0.40;0.40;;;1.70;99.90;;;;;;5028197;28;20763;-80
2023/03/02 02:20:58;;;;;;;0.50;0.50;;;1.50;99.90;;;;;;5028613;28;20462;-79
2023/03/02 02:23:34;;;;;;;0.40;0.40;;;1.60;99.90;;;;;;5027657;28;20822;-79
2023/03/02 02:26:34;;;;;;;0.40;0.40;;;1.60;99.90;;;;;;5027377;28;20191;-79
2023/03/02 02:29:21;;;;;;;0.40;0.40;;;1.70;99.90;;;;;;5027630;28;21186;-79
2023/03/02 02:32:09;;;;;;;0.40;0.40;;;1.60;99.90;;;;;;5035229;28;20444;-79
2023/03/02 02:34:43;;;;;;;0.40;0.40;;;1.60;99.90;;;;;;5024153;28;20445;-79
2023/03/02 02:37:23;;;;;;;0.40;0.40;;;1.70;99.90;;;;;;5023690;28;20561;-79
2023/03/02 02:39:50;;;;;;;0.50;0.50;;;1.60;99.90;;;;;;5015981;28;20457;-79
2023/03/02 02:42:28;;;;;;;0.43;0.43;;;1.60;99.90;;;;;;5024722;28;20498;-79
2023/03/02 02:44:58;;;;;;;0.50;0.50;;;1.50;99.90;;;;;;5027559;28;20453;-79
2023/03/02 02:47:24;;;;;;;0.40;0.40;;;1.60;99.90;;;;;;5026901;28;20541;-79
2023/03/02 02:49:52;;;;;;;0.40;0.40;;;1.50;99.90;;;;;;5026997;28;20430;-79
2023/03/02 02:52:20;;;;;;;0.40;0.40;;;1.70;99.90;;;;;;5027365;28;20486;-79
2023/03/02 02:54:49;;;;;;;0.40;0.40;;;1.60;99.90;;;;;;5026858;28;20438;-79
2023/03/02 02:57:17;;;;;;;0.50;0.50;;;1.70;99.90;;;;;;5025439;28;20497;-79
2023/03/02 02:59:48;;;;;;;0.40;0.40;;;1.70;99.90;;;;;;5016263;28;20446;-79
2023/03/02 03:02:21;;;;;;;0.30;0.30;;;1.60;99.90;;;;;;5028172;28;20462;-79
2023/03/02 03:04:47;;;;;;;0.40;0.40;;;1.70;99.90;;;;;;5013176;28;20441;-79
2023/03/02 03:07:20;;;;;;;0.40;0.40;;;1.70;99.90;;;;;;5030875;28;20464;-79
2023/03/02 03:09:54;;;;;;;0.50;0.50;;;1.60;99.90;;;;;;5026657;28;20239;-79
2023/03/02 03:12:23;;;;;;;0.40;0.40;;;1.60;99.90;;;;;;5023766;28;20508;-79
2023/03/02 03:14:49;;;;;;;0.30;0.30;;;1.60;99.90;;;;;;5004649;28;20455;-79
2023/03/02 03:17:15;;;;;;;0.40;0.40;;;1.70;99.90;;;;;;5014556;28;20854;-79
2023/03/02 03:19:43;;;;;;;0.50;0.50;;;1.60;99.90;;;;;;5034310;28;20453;-79
2023/03/02 03:22:13;;;;;;;0.37;0.37;;;1.60;99.90;;;;;;5025596;28;20195;-79
2023/03/02 03:24:40;;;;;;;0.30;0.30;;;1.50;99.90;;;;;;5027728;28;20835;-79
2023/03/02 03:27:08;;;;;;;0.30;0.30;;;1.50;99.90;;;;;;5028149;28;20448;-79
2023/03/02 03:29:38;;;;;;;0.40;0.40;;;1.60;99.90;;;;;;5041586;28;20460;-79
2023/03/02 03:32:05;;;;;;;0.50;0.50;;;1.50;99.90;;;;;;5028929;28;20533;-79
2023/03/02 03:34:32;;;;;;;0.30;0.30;;;1.60;99.90;;;;;;5034857;28;20463;-79
2023/03/02 03:37:00;;;;;;;0.30;0.30;;;1.70;99.90;;;;;;5019680;28;20488;-79
2023/03/02 03:39:29;;;;;;;0.40;0.40;;;1.60;99.90;;;;;;5027289;28;20458;-79
2023/03/02 03:41:55;;;;;;;0.40;0.40;;;1.60;99.90;;;;;;5023148;28;20479;-79
2023/03/02 03:44:21;;;;;;;0.40;0.40;;;1.70;99.90;;;;;;5004205;28;20461;-79
2023/03/02 03:46:47;;;;;;;0.50;0.50;;;1.70;99.90;;;;;;5036496;28;20253;-79
2023/03/02 03:49:12;;;;;;;0.37;0.37;;;1.70;99.90;;;;;;5027327;28;20942;-79
2023/03/02 03:51:38;;;;;;;0.40;0.40;;;1.70;99.90;;;;;;5035114;28;20222;-79
2023/03/02 03:54:06;;;;;;;0.43;0.43;;;1.60;99.90;;;;;;5010484;28;20283;-79
2023/03/02 03:56:36;;;;;;;0.30;0.30;;;1.60;99.90;;;;;;5025867;28;20192;-79
2023/03/02 03:59:06;;;;;;;0.37;0.37;;;1.70;99.90;;;;;;5025615;28;20452;-79
2023/03/02 04:01:41;;;;;;;0.40;0.40;;;1.60;99.90;;;;;;5027194;28;20442;-79
2023/03/02 04:04:13;;;;;;;0.40;0.40;;;1.60;99.90;;;;;;5029278;28;20512;-79
2023/03/02 04:06:39;;;;;;;0.33;0.33;;;1.40;99.90;;;;;;5028348;28;20508;-79
2023/03/02 04:09:05;;;;;;;0.40;0.40;;;1.50;99.90;;;;;;5017160;28;20434;-79
2023/03/02 04:11:36;;;;;;;0.40;0.40;;;1.40;99.90;;;;;;5026788;28;20430;-79
2023/03/02 04:14:02;;;;;;;0.50;0.50;;;1.50;99.90;;;;;;5017931;28;20541;-79
2023/03/02 04:16:29;;;;;;;0.50;0.50;;;1.50;99.90;;;;;;5026772;28;20544;-79
2023/03/02 04:18:55;;;;;;;0.30;0.30;;;1.50;99.90;;;;;;5027684;28;20454;-79
2023/03/02 04:21:21;;;;;;;0.30;0.30;;;1.50;99.90;;;;;;5028196;28;20456;-79
2023/03/02 04:23:47;;;;;;;0.50;0.50;;;1.60;99.90;;;;;;5026521;28;20508;-79
2023/03/02 04:26:12;;;;;;;0.40;0.40;;;1.50;99.90;;;;;;5034097;28;20441;-79
2023/03/02 04:28:38;;;;;;;0.40;0.40;;;1.60;99.90;;;;;;5020803;28;20238;-79
2023/03/02 04:31:03;;;;;;;0.40;0.40;;;1.60;99.90;;;;;;5023747;28;20278;-79
2023/03/02 04:33:29;;;;;;;0.40;0.40;;;1.50;99.90;;;;;;5032974;28;20199;-80
2023/03/02 04:35:55;;;;;;;0.50;0.50;;;1.60;99.90;;;;;;5031496;28;20703;-80
2023/03/02 04:38:20;;;;;;;0.50;0.50;;;1.70;99.90;;;;;;5026841;28;20219;-80
2023/03/02 04:40:46;;;;;;;0.40;0.40;;;1.70;99.90;;;;;;5033825;28;20179;-79
2023/03/02 04:43:12;;;;;;;0.40;0.40;;;1.70;99.90;;;;;;5032039;28;20242;-79
2023/03/02 04:45:38;;;;;;;0.50;0.50;;;1.80;99.90;;;;;;5025562;28;20184;-79
2023/03/02 04:48:04;;;;;;;0.40;0.40;;;1.80;99.90;;;;;;5021008;28;20686;-79
2023/03/02 04:50:30;;;;;;;0.43;0.43;;;1.70;99.90;;;;;;5030667;28;20435;-79
2023/03/02 04:52:55;;;;;;;0.40;0.40;;;1.70;99.90;;;;;;5015528;28;20458;-79
2023/03/02 04:55:23;;;;;;;0.30;0.30;;;1.70;99.90;;;;;;5027282;28;20179;-80
2023/03/02 04:57:49;;;;;;;0.30;0.30;;;1.60;99.90;;;;;;5014494;28;20219;-79
2023/03/02 05:00:16;;;;;;;0.40;0.40;;;1.60;99.90;;;;;;5030056;28;20438;-79
2023/03/02 05:02:42;;;;;;;0.33;0.33;;;1.70;99.90;;;;;;5036294;28;20714;-80
2023/03/02 05:05:14;;;;;;;0.40;0.40;;;1.50;99.90;;;;;;5047294;28;20441;-79
2023/03/02 05:07:39;;;;;;;0.30;0.30;;;1.60;99.90;;;;;;5043305;28;21016;-79
2023/03/02 05:10:06;;;;;;;0.40;0.40;;;1.60;99.90;;;;;;5032148;28;20529;-79
2023/03/02 05:12:53;;;;;;;0.40;0.40;;;1.50;99.90;;;;;;5032071;28;20232;-79
2023/03/02 05:15:16;;;;;;;0.37;0.37;;;1.70;99.90;;;;;;5029663;28;20453;-79
2023/03/02 05:17:42;;;;;;;0.40;0.40;;;1.60;99.90;;;;;;5030764;28;20846;-79
2023/03/02 05:20:10;;;;;;;0.40;0.40;;;1.40;99.90;;;;;;5037397;28;20634;-79
2023/03/02 05:22:35;;;;;;;0.40;0.40;;;1.50;99.90;;;;;;5027582;28;20183;-79
2023/03/02 05:25:00;;;;;;;0.40;0.40;;;1.50;99.90;;;;;;5030574;28;20507;-79
2023/03/02 05:27:26;;;;;;;0.50;0.50;;;1.40;99.90;;;;;;5036689;28;20198;-79
2023/03/02 05:29:51;;;;;;;0.40;0.40;;;1.40;99.90;;;;;;5028533;28;20667;-79
2023/03/02 05:32:17;;;;;;;0.50;0.50;;;1.50;99.90;;;;;;5028998;28;20195;-79
2023/03/02 05:34:42;;;;;;;0.50;0.50;;;1.50;99.90;;;;;;5012038;28;20203;-79
2023/03/02 05:37:08;;;;;;;0.40;0.40;;;1.60;99.90;;;;;;5030521;28;20216;-79
2023/03/02 05:39:33;;;;;;;0.43;0.43;;;1.60;99.90;;;;;;5024958;28;20640;-79
2023/03/02 05:41:59;;;;;;;0.40;0.40;;;1.60;99.90;;;;;;5031102;28;20284;-79
2023/03/02 05:44:24;;;;;;;0.50;0.50;;;1.50;99.90;;;;;;5029688;28;20191;-79
2023/03/02 05:46:50;;;;;;;0.50;0.50;;;1.50;99.90;;;;;;5030828;28;20192;-79
2023/03/02 05:49:16;;;;;;;0.40;0.40;;;1.40;99.90;;;;;;5031962;28;20188;-79
2023/03/02 05:51:41;;;;;;;0.40;0.40;;;1.40;99.90;;;;;;5039449;28;20199;-79
2023/03/02 05:54:06;;;;;;;0.50;0.50;;;1.60;99.90;;;;;;5023810;28;20192;-79
2023/03/02 05:56:32;;;;;;;0.40;0.40;;;1.60;99.90;;;;;;5023030;28;20234;-79
2023/03/02 05:58:57;;;;;;;0.50;0.50;;;1.40;99.90;;;;;;5030700;28;20789;-79
2023/03/02 06:01:23;;;;;;;0.40;0.40;;;1.40;99.90;;;;;;5019391;28;20198;-79
2023/03/02 06:03:48;;;;;;;0.50;0.50;;;1.50;99.90;;;;;;5034366;28;20206;-78
2023/03/02 06:06:15;;;;;;;0.40;0.40;;;1.50;99.90;;;;;;5029653;28;20188;-79
2023/03/02 06:08:42;;;;;;;0.43;0.43;;;1.40;99.90;;;;;;5024854;28;20545;-79
2023/03/02 06:11:08;;;;;;;0.50;0.50;;;1.40;99.90;;;;;;5029537;28;20449;-79
2023/03/02 06:13:33;;;;;;;0.50;0.50;;;1.50;99.90;;;;;;5030992;28;20446;-79
2023/03/02 06:15:59;;;;;;;0.50;0.50;;;1.50;99.90;;;;;;5036495;28;20470;-79
2023/03/02 06:18:24;;;;;;;0.40;0.40;;;1.50;99.90;;;;;;5021325;28;20227;-79
2023/03/02 06:20:50;;;;;;;0.40;0.40;;;1.60;99.90;;;;;;5044104;28;20578;-79
2023/03/02 06:23:15;;;;;;;0.50;0.50;;;1.60;99.90;;;;;;5027774;28;20203;-79
2023/03/02 06:25:47;;;;;;;0.40;0.40;;;1.50;99.90;;;;;;5028225;28;20190;-79
2023/03/02 06:28:12;;;;;;;0.50;0.50;;;1.50;99.90;;;;;;5024370;28;20203;-79
2023/03/02 06:30:38;;;;;;;0.40;0.40;;;1.70;99.90;;;;;;5034040;28;21012;-78
2023/03/02 06:33:04;;;;;;;0.30;0.30;;;1.70;99.90;;;;;;5008870;28;20453;-79
2023/03/02 06:35:30;;;;;;;0.40;0.40;;;1.70;99.90;;;;;;5037483;28;20179;-79
2023/03/02 06:37:55;;;;;;;0.40;0.40;;;1.60;99.90;;;;;;5024684;28;20315;-79
2023/03/02 06:40:22;;;;;;;0.50;0.50;;;1.60;99.90;;;;;;5012849;28;20187;-78
2023/03/02 06:42:47;;;;;;;0.40;0.40;;;1.70;99.90;;;;;;5025842;28;20254;-79
2023/03/02 06:45:13;;;;;;;0.50;0.50;;;1.70;99.90;;;;;;4999030;28;20574;-79
2023/03/02 06:47:38;;;;;;;0.50;0.50;;;1.80;99.90;;;;;;5024868;28;20607;-79
2023/03/02 06:50:05;;;;;;;0.40;0.40;;;1.80;99.90;;;;;;5040604;28;20314;-79
2023/03/02 06:52:31;;;;;;;0.30;0.30;;;1.80;99.90;;;;;;5025298;28;20206;-78
2023/03/02 06:54:56;;;;;;;0.30;0.30;;;1.90;99.90;;;;;;5031095;28;20478;-80
2023/03/02 06:57:22;;;;;;;0.40;0.40;;;1.80;99.90;;;;;;5029993;28;20219;-79
2023/03/02 06:59:48;;;;;;;0.50;0.50;;;1.70;99.90;;;;;;5028614;28;20183;-79
2023/03/02 07:02:13;;;;;;;0.40;0.40;;;1.90;99.90;;;;;;5026955;28;20465;-79
2023/03/02 07:04:39;;;;;;;0.40;0.40;;;1.80;99.90;;;;;;5022630;28;20190;-79
2023/03/02 07:07:04;;;;;;;0.40;0.40;;;1.90;99.90;;;;;;5025104;28;20229;-79
2023/03/02 07:09:33;;;;;;;0.40;0.40;;;1.90;99.90;;;;;;5033167;28;20690;-79
2023/03/02 07:11:59;;;;;;;0.40;0.40;;;1.80;99.90;;;;;;5005486;28;20276;-79
2023/03/02 07:14:24;;;;;;;0.40;0.40;;;1.90;99.90;;;;;;5024923;28;20539;-79
2023/03/02 07:16:50;;;;;;;0.37;0.37;;;1.90;99.90;;;;;;5019592;28;20227;-79
2023/03/02 07:19:16;;;;;;;0.40;0.40;;;1.90;99.90;;;;;;5025748;28;20179;-79
2023/03/02 07:21:41;;;;;;;0.30;0.30;;;2.00;99.90;;;;;;5019875;28;20223;-79
2023/03/02 07:24:07;;;;;;;0.40;0.40;;;2.00;99.90;;;;;;5028466;28;20655;-79
2023/03/02 07:26:32;;;;;;;0.40;0.40;;;2.10;99.90;;;;;;5025552;28;20812;-79
2023/03/02 07:28:58;;;;;;;0.40;0.40;;;2.00;99.90;;;;;;5018023;28;20195;-79
2023/03/02 07:31:24;;;;;;;0.40;0.40;;;2.00;99.90;;;;;;5022547;28;20187;-80
2023/03/02 07:33:50;;;;;;;0.33;0.33;;;1.90;99.90;;;;;;5018259;28;20194;-79
2023/03/02 07:36:16;;;;;;;0.50;0.50;;;1.90;99.90;;;;;;5018111;28;20446;-79
2023/03/02 07:38:41;;;;;;;0.50;0.50;;;1.80;99.90;;;;;;5019146;28;20223;-80
2023/03/02 07:41:09;;;;;;;0.40;0.40;;;2.00;99.90;;;;;;5037985;28;20591;-81
2023/03/02 07:43:36;;;;;;;0.40;0.40;;;1.90;99.90;;;;;;5029199;28;20729;-78
2023/03/02 07:46:05;;;;;;;0.40;0.40;;;1.90;99.90;;;;;;5028712;28;20437;-78
2023/03/02 07:48:32;;;;;;;0.40;0.40;;;2.00;99.90;;;;;;5023908;28;20938;-78
2023/03/02 07:51:03;;;;;;;0.40;0.40;;;1.90;99.90;;;;;;5030200;28;20433;-81
2023/03/02 07:53:29;;;;;;;0.40;0.40;;;1.80;99.90;;;;;;5019320;28;20499;-81
2023/03/02 07:55:54;;;;;;;0.33;0.33;;;2.00;99.90;;;;;;5025397;28;20433;-81
2023/03/02 07:58:20;;;;;;;0.40;0.40;;;2.00;99.90;;;;;;5027399;28;20335;-79
2023/03/02 08:00:47;;;;;;;0.40;0.40;;;2.00;99.90;;;;;;5040033;28;20175;-78
2023/03/02 08:03:12;;;;;;;0.50;0.50;;;2.00;99.90;;;;;;5029584;28;20529;-81
2023/03/02 08:05:44;;;;;;;0.40;0.40;;;1.90;99.90;;;;;;5023546;28;20542;-78
2023/03/02 08:08:09;;;;;;;0.50;0.50;;;1.90;99.90;;;;;;5039189;28;20192;-81
2023/03/02 08:10:35;;;;;;;0.40;0.40;;;1.80;99.90;;;;;;5002204;28;20818;-81
2023/03/02 08:13:01;;;;;;;0.33;0.33;;;2.00;99.90;;;;;;5021277;28;20196;-81
2023/03/02 08:15:27;;;;;;;0.40;0.40;;;2.00;99.90;;;;;;5018266;28;20779;-81
2023/03/02 08:17:52;;;;;;;0.40;0.40;;;1.90;99.90;;;;;;5025149;28;20220;-81
2023/03/02 08:20:18;;;;;;;0.40;0.40;;;1.90;99.90;;;;;;5018349;28;20208;-81
2023/03/02 08:22:43;;;;;;;0.40;0.40;;;2.10;99.90;;;;;;5027121;28;21070;-81
2023/03/02 08:25:09;;;;;;;0.40;0.40;;;2.20;99.90;;;;;;5049115;28;20182;-81
2023/03/02 08:27:34;;;;;;;0.40;0.40;;;2.20;99.90;;;;;;5023835;28;20184;-78
2023/03/02 08:30:00;;;;;;;0.40;0.40;;;2.40;99.90;;;;;;5033474;28;20206;-78
2023/03/02 08:32:26;;;;;;;0.40;0.40;;;2.30;99.90;;;;;;5031845;28;20278;-81
2023/03/02 08:34:51;;;;;;;0.40;0.40;;;2.30;99.90;;;;;;5038603;28;20588;-80
2023/03/02 08:37:18;;;;;;;0.40;0.40;;;2.40;99.90;;;;;;5033821;28;20211;-80
2023/03/02 08:39:44;;;;;;;0.40;0.40;;;2.50;99.90;;;;;;5029136;28;20184;-81
2023/03/02 08:42:09;;;;;;;0.40;0.40;;;2.40;99.90;;;;;;5032271;28;20991;-81
2023/03/02 08:44:35;;;;;;;0.37;0.37;;;2.40;99.90;;;;;;5041501;28;20278;-81
2023/03/02 08:47:00;;;;;;;0.40;0.40;;;2.50;99.90;;;;;;5040568;28;20266;-80
2023/03/02 08:49:26;;;;;;;0.40;0.40;;;2.40;99.90;;;;;;5021849;28;20202;-80
2023/03/02 08:51:55;;;;;;;0.40;0.40;;;2.50;99.90;;;;;;5028048;28;20669;-80
2023/03/02 08:54:22;;;;;;;0.30;0.30;;;2.40;99.90;;;;;;5028072;28;20443;-80
2023/03/02 08:56:49;;;;;;;0.40;0.40;;;2.50;99.90;;;;;;5029829;28;20477;-80
2023/03/02 08:59:15;;;;;;;0.30;0.30;;;2.70;99.90;;;;;;5037441;28;20519;-80
2023/03/02 09:01:41;;;;;;;0.30;0.30;;;2.70;99.90;;;;;;5029311;28;20495;-80
2023/03/02 09:04:09;;;;;;;0.40;0.40;;;2.70;99.90;;;;;;5026100;28;20496;-80
2023/03/02 09:06:37;;;;;;;0.40;0.40;;;2.80;99.90;;;;;;5032137;28;20911;-80
2023/03/02 09:09:04;;;;;;;0.40;0.40;;;2.60;99.90;;;;;;5043078;28;20449;-80
2023/03/02 09:11:30;;;;;;;0.30;0.30;;;2.50;99.90;;;;;;5048711;28;20432;-80
2023/03/02 09:13:55;;;;;;;0.30;0.30;;;2.60;99.90;;;;;;5026690;28;20440;-80
2023/03/02 09:16:24;;;;;;;0.40;0.40;;;2.70;99.90;;;;;;5039025;28;20961;-80
2023/03/02 09:18:50;;;;;;;0.33;0.33;;;2.60;99.90;;;;;;5028713;28;20581;-80
2023/03/02 09:21:15;;;;;;;0.40;0.40;;;2.80;99.90;;;;;;5027623;28;20449;-80
2023/03/02 09:23:41;;;;;;;0.30;0.30;;;2.90;99.90;;;;;;5031470;28;20199;-80
2023/03/02 09:26:07;;;;;;;0.40;0.40;;;2.70;99.90;;;;;;5033127;28;20188;-80
2023/03/02 09:28:33;;;;;;;0.40;0.40;;;2.70;99.90;;;;;;5038161;28;20235;-81
2023/03/02 09:31:01;;;;;;;0.40;0.40;;;2.90;99.90;;;;;;5028322;28;20439;-80
2023/03/02 09:33:27;;;;;;;0.40;0.40;;;2.90;99.90;;;;;;5023821;28;20446;-80
2023/03/02 09:35:52;;;;;;;0.30;0.30;;;2.90;99.90;;;;;;5025481;28;20449;-80
2023/03/02 09:38:18;;;;;;;0.40;0.40;;;2.90;99.90;;;;;;5030212;28;20224;-80
2023/03/02 09:41:09;;;;;;;0.33;0.33;;;2.70;99.90;;;;;;5030612;28;20227;-80
2023/03/02 09:44:01;;;;;;;0.50;0.50;;;2.90;99.90;;;;;;5028846;28;20207;-80
2023/03/02 09:46:43;;;;;;;0.40;0.40;;;3.10;99.90;;;;;;5030253;28;20450;-80
2023/03/02 09:49:38;;;;;;;0.30;0.30;;;3.00;99.90;;;;;;5031581;28;21160;-80
2023/03/02 09:52:24;;;;;;;0.40;0.40;;;3.00;99.90;;;;;;5023570;28;20476;-80
2023/03/02 09:54:50;;;;;;;0.30;0.30;;;3.10;99.90;;;;;;5028373;28;20472;-79
2023/03/02 09:57:31;;;;;;;0.30;0.30;;;3.10;99.90;;;;;;5021685;28;20902;-86
2023/03/02 10:00:31;;;;;;;0.40;0.40;;;2.90;99.90;;;;;;5012953;28;20492;-86
2023/03/02 10:03:06;;;;;;;0.40;0.40;;;2.90;99.90;;;;;;5027234;28;20478;-85
2023/03/02 10:05:43;;;;;;;0.30;0.30;;;2.90;99.90;;;;;;5008813;28;22029;-85
2023/03/02 10:08:19;;;;;;;0.30;0.30;;;3.00;99.90;;;;;;5028396;28;20453;-84
2023/03/02 10:10:48;;;;;;;0.30;0.30;;;3.10;99.90;;;;;;5025632;28;20450;-84
2023/03/02 10:13:23;;;;;;;0.40;0.40;;;3.40;99.90;;;;;;5030573;28;20446;-84
2023/03/02 10:16:11;;;;;;;0.30;0.30;;;3.50;99.90;;;;;;5012423;28;20429;-85
2023/03/02 10:19:05;;;;;;;0.37;0.37;;;3.60;99.90;;;;;;5012450;28;20485;-86
2023/03/02 10:21:37;;;;;;;0.30;0.30;;;3.80;99.90;;;;;;5015076;28;20462;-84
2023/03/02 10:24:23;;;;;;;0.40;0.40;;;3.90;99.90;;;;;;5011650;28;20431;-83
2023/03/02 10:26:53;;;;;;;0.30;0.30;;;3.70;99.90;;;;;;5018592;28;20438;-85
2023/03/02 10:29:48;;;;;;;0.40;0.40;;;3.70;99.90;;;;;;5023233;28;20842;-85
2023/03/02 10:32:30;;;;;;;0.40;0.40;;;3.70;99.90;;;;;;5023400;28;20536;-85
2023/03/02 10:34:57;;;;;;;0.30;0.30;;;3.80;99.90;;;;;;4999396;28;20451;-83
2023/03/02 10:37:29;;;;;;;0.40;0.40;;;3.90;99.90;;;;;;5020764;28;20504;-85
2023/03/02 10:39:56;;;;;;;0.40;0.40;;;3.60;99.90;;;;;;5030442;28;20802;-85
2023/03/02 10:42:31;;;;;;;0.33;0.33;;;3.60;99.90;;;;;;5011020;28;20482;-85
2023/03/02 10:45:29;;;;;;;0.40;0.40;;;3.80;99.90;;;;;;5029810;28;20539;-83
2023/03/02 10:48:04;;;;;;;0.30;0.30;;;3.80;99.90;;;;;;5025709;28;20442;-84
2023/03/02 10:50:30;;;;;;;0.30;0.30;;;4.00;99.90;;;;;;5032276;28;20457;-85
2023/03/02 10:52:56;;;;;;;0.30;0.30;;;4.00;99.90;;;;;;5009284;28;20433;-85
2023/03/02 10:55:22;;;;;;;0.30;0.30;;;4.00;99.90;;;;;;5030726;28;20414;-84
2023/03/02 10:58:00;;;;;;;0.30;0.30;;;4.10;99.90;;;;;;5026824;28;20501;-85
2023/03/02 11:00:29;;;;;;;0.30;0.30;;;4.10;99.90;;;;;;5023796;28;20229;-85
2023/03/02 11:03:05;;;;;;;0.40;0.40;;;4.20;99.90;;;;;;5021769;28;20478;-85
2023/03/02 11:05:30;;;;;;;0.40;0.40;;;3.70;99.90;;;;;;5021583;28;20484;-85
2023/03/02 11:08:01;;;;;;;0.30;0.30;;;3.80;99.90;;;;;;5012737;28;20473;-86
2023/03/02 11:10:34;;;;;;;0.30;0.30;;;3.90;99.90;;;;;;5008422;28;20216;-84
2023/03/02 11:13:02;;;;;;;0.40;0.40;;;4.00;99.90;;;;;;5012651;28;20439;-85
2023/03/02 11:15:35;;;;;;;0.40;0.40;;;4.00;99.90;;;;;;5026633;28;20525;-84
2023/03/02 11:18:06;;;;;;;0.30;0.30;;;4.10;99.90;;;;;;5017328;28;20473;-80
2023/03/02 11:20:36;;;;;;;0.30;0.30;;;4.10;99.90;;;;;;5011963;28;20436;-82
2023/03/02 11:23:12;;;;;;;0.37;0.37;;;4.20;99.90;;;;;;5021154;28;20441;-82
2023/03/02 11:25:42;;;;;;;0.30;0.30;;;4.10;99.90;;;;;;5033122;28;20456;-83
2023/03/02 11:28:19;;;;;;;0.30;0.30;;;4.20;99.90;;;;;;5011841;28;20496;-83
2023/03/02 11:30:49;;;;;;;0.30;0.30;;;4.10;99.90;;;;;;5025069;28;20452;-81
2023/03/02 11:33:22;;;;;;;0.40;0.40;;;4.30;99.90;;;;;;5015726;28;20471;-83
2023/03/02 11:36:02;;;;;;;0.30;0.30;;;4.20;99.90;;;;;;5021749;28;20495;-82
2023/03/02 11:38:32;;;;;;;0.30;0.30;;;3.80;99.90;;;;;;5031442;28;20485;-83
2023/03/02 11:41:11;;;;;;;0.30;0.30;;;4.10;99.90;;;;;;5042177;28;20438;-82
2023/03/02 11:43:37;;;;;;;0.30;0.30;;;4.10;99.90;;;;;;5038134;28;20467;-81
2023/03/02 11:46:05;;;;;;;0.30;0.30;;;4.20;99.90;;;;;;5013834;28;20442;-82
2023/03/02 11:48:48;;;;;;;0.30;0.30;;;4.50;99.90;;;;;;5013888;28;20188;-83
2023/03/02 11:51:24;;;;;;;0.40;0.40;;;4.50;99.90;;;;;;5026992;28;20492;-82
2023/03/02 11:53:59;;;;;;;0.30;0.30;;;4.60;99.90;;;;;;5032756;28;20605;-82
2023/03/02 11:56:27;;;;;;;0.30;0.30;;;4.80;99.90;;;;;;5037810;28;20440;-81
2023/03/02 11:58:57;;;;;;;0.20;0.20;;;4.90;99.90;;;;;;5036249;28;20489;-80
2023/03/02 12:01:25;;;;;;;0.30;0.30;;;4.90;99.90;;;;;;5023064;28;20473;-81
2023/03/02 12:03:51;;;;;;;0.30;0.30;;;5.00;99.90;;;;;;5010365;28;20949;-83
2023/03/02 12:06:17;;;;;;;0.30;0.30;;;5.40;99.90;;;;;;5032460;28;20442;-83
2023/03/02 12:08:45;;;;;;;0.30;0.30;;;5.70;99.90;;;;;;5027995;28;20445;-81
2023/03/02 12:11:17;;;;;;;0.30;0.30;;;5.40;99.90;;;;;;5031764;28;20194;-80
2023/03/02 12:13:45;;;;;;;0.30;0.30;;;5.10;99.90;;;;;;5027690;28;21061;-82
2023/03/02 12:16:37;;;;;;;0.30;0.30;;;5.40;99.90;;;;;;5025851;28;20460;-83
2023/03/02 12:19:37;;;;;;;0.30;0.30;;;4.70;99.90;;;;;;5023458;28;20486;-83
2023/03/02 12:22:09;;;;;;;0.30;0.30;;;5.10;99.90;;;;;;5014342;28;20427;-81
2023/03/02 12:24:41;;;;;;;0.30;0.30;;;5.20;99.90;;;;;;5044531;28;20458;-81
2023/03/02 12:27:12;;;;;;;0.30;0.30;;;5.30;99.90;;;;;;5027208;28;20438;-81
2023/03/02 12:29:47;;;;;;;0.20;0.20;;;5.60;99.90;;;;;;5028309;28;20450;-80
2023/03/02 12:32:18;;;;;;;0.27;0.27;;;5.60;99.90;;;;;;5020978;28;20430;-80
2023/03/02 12:34:53;;;;;;;0.30;0.30;;;5.80;99.90;;;;;;5015584;28;20472;-81
2023/03/02 12:37:52;;;;;;;0.30;0.30;;;6.30;99.90;;;;;;5030073;28;20512;-81
2023/03/02 12:40:20;;;;;;;0.20;0.20;;;6.80;99.90;;;;;;5016615;28;20430;-81
2023/03/02 12:43:08;;;;;;;0.20;0.20;;;7.90;99.90;;;;;;5009167;28;20491;-81
2023/03/02 12:45:56;;;;;;;0.10;0.10;;;10.80;99.90;;;;;;5029634;28;20439;-81
2023/03/02 12:48:44;;;;;;;0.10;0.10;;;10.40;99.90;;;;;;5004297;28;20431;-82
2023/03/02 12:51:28;;;;;;;0.10;0.10;;;11.00;99.90;;;;;;4994015;28;20511;-81
2023/03/02 12:54:06;;;;;;;0.10;0.10;;;10.20;99.90;;;;;;4993588;28;20420;-81
2023/03/02 12:56:32;;;;;;;0.10;0.10;;;11.70;99.90;;;;;;5008965;28;20447;-81
2023/03/02 12:59:01;;;;;;;0.10;0.10;;;11.50;99.90;;;;;;5002595;28;20479;-81
2023/03/02 13:01:29;;;;;;;0.10;0.10;;;11.20;99.90;;;;;;5001174;28;20429;-81
2023/03/02 13:03:55;;;;;;;0.10;0.10;;;12.10;99.90;;;;;;5009190;28;20436;-81
2023/03/02 13:06:24;;;;;;;0.10;0.10;;;12.50;99.90;;;;;;4999586;28;20526;-82
2023/03/02 13:08:53;;;;;;;0.10;0.10;;;13.10;99.90;;;;;;5011196;28;20436;-83